• Join FlightAware (Why Join?)
  • Login
  • US Flag 
11:34AM EDT


 

Airport Tracker/Info


-or-


 

Live Flight TrackerFlight Track Log ✈ UAL4843 ✈ 18-Apr-2013 ✈ KBDL - KEWR

Flight Track Log - Related Links

Times and Time Zones

All times are in EDT time to prevent confusion due to time zone crossing. See the UAL4843 flight status page for this flight to view local times or setup timezone preferences in your user account.

Time Position Orientation Groundspeed Altitude Reporting Facility
EDT Latitude Longitude Course Direction KTS MPH feet Rate Location/Type
11:48AM 41.9311 -72.7025 227° Southwest 130 150 800  Level Boston Center
11:49AM 41.8997 -72.7469 227° Southwest 142 163 2,400 1,560 Climbing Boston Center
11:50AM 41.8706 -72.7886 227° Southwest 156 180 4,200 1,620 Climbing Boston Center
11:51AM 41.8289 -72.7856 177° South 147 169 5,700 840 Climbing Boston Center
11:52AM 41.7767 -72.7714 169° South 190 219 6,000 120 Climbing Boston Center
11:53AM 41.7183 -72.7683 178° South 218 251 6,000  Level Boston Center
11:55AM 41.6000 -72.8667 212° Southwest 223 257 6,000  Level New York TRACON
11:56AM 41.5667 -72.9333 236° Southwest 219 252 6,000  Level New York TRACON
11:57AM 41.5333 -73.0000 236° Southwest 222 255 6,000  Level New York TRACON
11:58AM 41.5000 -73.0667 236° Southwest 221 254 6,000  Level New York TRACON
11:59AM 41.4667 -73.1500 242° Southwest 222 255 6,000  Level New York TRACON
12:00PM 41.4333 -73.2167 236° Southwest 220 253 6,000  Level New York TRACON
12:01PM 41.4000 -73.2833 236° Southwest 219 252 6,000  Level New York TRACON
12:02PM 41.3667 -73.3500 236° Southwest 217 250 6,000 -300 Level New York TRACON
12:03PM 41.3333 -73.4167 236° Southwest 227 261 5,500 -540 Descending New York TRACON
12:04PM 41.3000 -73.5000 242° Southwest 226 260 5,000 -300 Descending New York TRACON
12:05PM 41.2833 -73.5667 252° West 215 247 5,000  Level New York TRACON
12:06PM 41.2667 -73.6500 255° West 219 252 5,000  Level New York TRACON
12:07PM 41.2667 -73.7333 270° West 221 254 5,000  Level New York TRACON
12:08PM 41.2500 -73.8167 255° West 225 259 5,000  Level New York TRACON
12:09PM 41.2500 -73.9000 270° West 225 259 5,000  Level New York TRACON
12:10PM 41.2333 -73.9833 255° West 225 259 5,000  Level New York TRACON
12:11PM 41.2333 -74.0667 270° West 221 254 5,000  Level New York TRACON
12:12PM 41.2333 -74.1333 270° West 223 257 5,000  Level New York TRACON
12:13PM 41.2167 -74.2167 255° West 215 247 5,000  Level New York TRACON
12:14PM 41.2167 -74.2833 270° West 184 212 5,000  Level New York TRACON
12:15PM 41.2000 -74.3500 252° West 161 185 5,000  Level New York TRACON
12:16PM 41.1667 -74.3500 180° South 168 193 5,000  Level New York TRACON
12:17PM 41.1333 -74.3167 143° Southeast 181 208 5,000  Level New York TRACON
12:18PM 41.1000 -74.2833 143° Southeast 178 205 5,000  Level New York TRACON
12:19PM 41.0667 -74.2167 124° Southeast 171 197 5,000  Level New York TRACON
12:20PM 41.0333 -74.1667 131° Southeast 163 188 5,000  Level New York TRACON
12:21PM 41.0167 -74.1333 124° Southeast 160 184 5,000 -180 Level New York TRACON
12:22PM 40.9833 -74.1000 143° Southeast 150 173 4,700 -540 Descending New York TRACON
12:23PM 40.9333 -74.0833 166° South 137 158 4,000 -360 Descending New York TRACON
12:24PM 40.9000 -74.0667 159° South 156 180 4,000 -180 Level New York TRACON
12:25PM 40.8667 -74.0667 180° South 165 190 3,700 -720 Descending New York TRACON
12:26PM 40.8167 -74.0833 194° South 175 201 2,600 -900 Descending New York TRACON
12:27PM 40.7833 -74.1167 217° Southwest 141 162 2,000 -780 Descending New York TRACON
12:28PM 40.7500 -74.1333 201° Southwest 140 161 1,200 -840 Descending New York TRACON
12:29PM 40.7167 -74.1500 201° Southwest 122 140 400 -840 Descending New York TRACON